Time;durP1;ratioP1;P1;durP2;ratioP2;P2;SDS_P1;SDS_P2;PMS_P1;PMS_P2;Temp;Humidity;BMP_temperature;BMP_pressure;BME280_temperature;BME280_humidity;BME280_pressure;Samples;Min_cycle;Max_cycle;Signal;HPM_P1;HPM_P2
2022/06/06 00:01:52;;;;;;;20.70;4.07;;;;;;;;;;5004399;28;20189;-70
2022/06/06 00:04:19;;;;;;;16.77;4.38;;;;;;;;;;4994604;28;20029;-72
2022/06/06 00:06:46;;;;;;;19.20;4.53;;;;;;;;;;4991527;28;20060;-72
2022/06/06 00:09:15;;;;;;;20.05;4.57;;;;;;;;;;5002446;28;20104;-70
2022/06/06 00:11:43;;;;;;;17.70;4.75;;;;;;;;;;5003143;28;20029;-71
2022/06/06 00:14:11;;;;;;;20.10;4.68;;;;;;;;;;5007795;28;20045;-70
2022/06/06 00:16:39;;;;;;;15.77;4.50;;;;;;;;;;4989183;28;20198;-70
2022/06/06 00:19:07;;;;;;;21.33;4.82;;;;;;;;;;4991735;28;20116;-70
2022/06/06 00:21:34;;;;;;;17.83;4.25;;;;;;;;;;4991804;28;20132;-69
2022/06/06 00:24:01;;;;;;;18.48;4.93;;;;;;;;;;5000293;28;20079;-72
2022/06/06 00:26:29;;;;;;;16.95;4.45;;;;;;;;;;4990769;28;20041;-71
2022/06/06 00:28:57;;;;;;;17.30;5.13;;;;;;;;;;4993281;28;20388;-70
2022/06/06 00:37:02;;;;;;;21.85;5.65;;;;;;;;;;5008871;28;20041;-72
2022/06/06 00:39:30;;;;;;;17.63;5.20;;;;;;;;;;4994784;28;20111;-70
2022/06/06 00:41:58;;;;;;;19.55;5.70;;;;;;;;;;5003643;28;20558;-70
2022/06/06 00:44:30;;;;;;;20.77;6.13;;;;;;;;;;4986399;28;20089;-70
2022/06/06 00:47:13;;;;;;;17.13;5.93;;;;;;;;;;4973687;28;20037;-70
2022/06/06 00:49:45;;;;;;;27.67;7.03;;;;;;;;;;5001104;28;20037;-69
2022/06/06 00:52:19;;;;;;;23.45;6.25;;;;;;;;;;5004224;28;20131;-69
2022/06/06 00:54:46;;;;;;;21.63;6.30;;;;;;;;;;4995430;28;20061;-70
2022/06/06 00:57:16;;;;;;;19.08;5.53;;;;;;;;;;5004569;28;20131;-70
2022/06/06 00:59:43;;;;;;;24.85;6.38;;;;;;;;;;4969837;28;20124;-70
2022/06/06 01:02:10;;;;;;;22.98;5.70;;;;;;;;;;4994586;28;20041;-73
2022/06/06 01:04:38;;;;;;;23.77;5.80;;;;;;;;;;4989508;28;20042;-72
2022/06/06 01:07:05;;;;;;;24.08;5.68;;;;;;;;;;4990608;28;20100;-73
2022/06/06 01:09:31;;;;;;;21.40;6.15;;;;;;;;;;4971295;28;20030;-74
2022/06/06 01:11:59;;;;;;;20.00;5.55;;;;;;;;;;4991706;28;20371;-73
2022/06/06 01:14:28;;;;;;;19.05;4.95;;;;;;;;;;4986976;28;20120;-72
2022/06/06 01:16:57;;;;;;;20.50;5.40;;;;;;;;;;4973355;28;20427;-72
2022/06/06 01:19:23;;;;;;;21.48;5.35;;;;;;;;;;4972299;28;20447;-73
2022/06/06 01:21:55;;;;;;;18.67;5.13;;;;;;;;;;4992068;28;20153;-73
2022/06/06 01:24:29;;;;;;;18.70;4.93;;;;;;;;;;4988037;28;20047;-71
2022/06/06 01:27:02;;;;;;;21.30;5.57;;;;;;;;;;4993643;28;20045;-73
2022/06/06 01:29:32;;;;;;;17.10;4.95;;;;;;;;;;4991862;28;20061;-72
2022/06/06 01:32:01;;;;;;;26.08;6.30;;;;;;;;;;4993473;28;20471;-72
2022/06/06 01:34:30;;;;;;;20.33;5.63;;;;;;;;;;4987759;28;20492;-72
2022/06/06 01:36:57;;;;;;;22.52;5.60;;;;;;;;;;4970560;28;20040;-73
2022/06/06 01:39:25;;;;;;;22.63;5.53;;;;;;;;;;4989358;28;20476;-73
2022/06/06 01:42:10;;;;;;;22.42;5.75;;;;;;;;;;4992048;28;20791;-72
2022/06/06 01:44:48;;;;;;;20.15;5.13;;;;;;;;;;4985255;28;20136;-72
2022/06/06 01:47:17;;;;;;;18.88;5.05;;;;;;;;;;4971856;28;20022;-72
2022/06/06 01:49:43;;;;;;;20.77;5.32;;;;;;;;;;4985402;28;20033;-72
2022/06/06 01:52:12;;;;;;;20.80;5.55;;;;;;;;;;4992457;28;20109;-73
2022/06/06 01:54:40;;;;;;;22.40;5.65;;;;;;;;;;4989355;28;20111;-72
2022/06/06 01:57:10;;;;;;;16.85;5.22;;;;;;;;;;4990791;28;20022;-72
2022/06/06 01:59:37;;;;;;;20.23;4.93;;;;;;;;;;4997015;28;20050;-72
2022/06/06 02:02:03;;;;;;;21.13;5.25;;;;;;;;;;4990896;28;20047;-73
2022/06/06 02:04:31;;;;;;;23.10;5.90;;;;;;;;;;5001836;28;20387;-71
2022/06/06 02:06:58;;;;;;;23.67;5.40;;;;;;;;;;4993798;28;20100;-73
2022/06/06 02:09:31;;;;;;;20.05;4.95;;;;;;;;;;4990494;28;20025;-73
2022/06/06 02:12:00;;;;;;;18.85;5.00;;;;;;;;;;5003120;28;20523;-72
2022/06/06 02:14:28;;;;;;;20.23;4.75;;;;;;;;;;4996046;28;20492;-74
2022/06/06 02:16:57;;;;;;;18.40;4.90;;;;;;;;;;5002797;28;20398;-74
2022/06/06 02:19:24;;;;;;;19.77;4.85;;;;;;;;;;4996859;28;20563;-74
2022/06/06 02:21:51;;;;;;;18.40;5.00;;;;;;;;;;4985395;28;20072;-73
2022/06/06 02:24:19;;;;;;;20.83;4.55;;;;;;;;;;5002201;28;20135;-74
2022/06/06 02:26:46;;;;;;;17.42;4.90;;;;;;;;;;4998750;28;20116;-74
2022/06/06 02:29:13;;;;;;;20.45;4.70;;;;;;;;;;4987156;28;20030;-74
2022/06/06 02:31:40;;;;;;;17.60;4.43;;;;;;;;;;4995240;28;20480;-73
2022/06/06 02:34:08;;;;;;;18.63;5.03;;;;;;;;;;4984679;28;20597;-74
2022/06/06 02:36:36;;;;;;;19.17;5.45;;;;;;;;;;4999660;28;20041;-74
2022/06/06 02:39:03;;;;;;;18.98;5.10;;;;;;;;;;4992928;28;20535;-72
2022/06/06 02:41:31;;;;;;;18.83;5.20;;;;;;;;;;4983191;28;20592;-72
2022/06/06 02:43:58;;;;;;;15.85;4.65;;;;;;;;;;4985048;28;20255;-72
2022/06/06 02:46:27;;;;;;;16.23;4.50;;;;;;;;;;4988545;28;20033;-73
2022/06/06 02:48:53;;;;;;;17.92;4.90;;;;;;;;;;4988622;28;20029;-73
2022/06/06 02:51:21;;;;;;;19.35;5.10;;;;;;;;;;5012005;28;20029;-73
2022/06/06 02:53:49;;;;;;;20.35;5.45;;;;;;;;;;4991921;28;20367;-73
2022/06/06 02:56:15;;;;;;;19.20;5.53;;;;;;;;;;5008159;28;20108;-73
2022/06/06 02:58:41;;;;;;;18.92;5.13;;;;;;;;;;4988177;28;20577;-74
2022/06/06 03:01:09;;;;;;;15.95;4.88;;;;;;;;;;5011495;28;20559;-74
2022/06/06 03:03:36;;;;;;;19.02;4.97;;;;;;;;;;4993392;28;20124;-73
2022/06/06 03:06:05;;;;;;;16.65;4.43;;;;;;;;;;5011169;28;20036;-73
2022/06/06 03:08:35;;;;;;;24.20;5.45;;;;;;;;;;4987641;28;20033;-73
2022/06/06 03:11:17;;;;;;;16.60;5.32;;;;;;;;;;5013639;28;20025;-73
2022/06/06 03:13:55;;;;;;;15.30;4.95;;;;;;;;;;5002022;28;20060;-74
2022/06/06 03:22:03;;;;;;;21.92;5.45;;;;;;;;;;5011666;28;20044;-74
2022/06/06 03:24:44;;;;;;;16.90;4.75;;;;;;;;;;5006325;28;20021;-75
2022/06/06 03:27:18;;;;;;;16.25;4.72;;;;;;;;;;4998217;28;20036;-74
2022/06/06 03:30:06;;;;;;;17.27;4.55;;;;;;;;;;4989539;28;20034;-74
2022/06/06 03:32:32;;;;;;;17.20;5.03;;;;;;;;;;5010361;28;20036;-73
2022/06/06 03:34:58;;;;;;;;;;;;;;;;;;5013296;28;20034;-74
2022/06/06 03:37:43;;;;;;;15.38;4.38;;;;;;;;;;5013595;28;20007;-74
2022/06/06 03:40:10;;;;;;;20.15;5.28;;;;;;;;;;5013772;28;20041;-72
2022/06/06 03:42:36;;;;;;;18.35;4.80;;;;;;;;;;4992110;28;20086;-73
2022/06/06 03:45:17;;;;;;;22.02;5.78;;;;;;;;;;5013713;28;20036;-73
2022/06/06 03:47:46;;;;;;;17.38;5.00;;;;;;;;;;5010887;28;20399;-73
2022/06/06 03:50:12;;;;;;;21.27;6.03;;;;;;;;;;5012242;28;20144;-73
2022/06/06 03:52:56;;;;;;;19.92;5.07;;;;;;;;;;4993997;28;20514;-72
2022/06/06 03:55:42;;;;;;;18.63;5.10;;;;;;;;;;5009915;28;20025;-73
2022/06/06 03:58:11;;;;;;;18.45;5.07;;;;;;;;;;5013241;28;20100;-72
2022/06/06 04:00:40;;;;;;;21.45;5.38;;;;;;;;;;5009607;28;20030;-73
2022/06/06 04:03:07;;;;;;;18.88;5.10;;;;;;;;;;5010832;28;20021;-73
2022/06/06 04:05:40;;;;;;;19.17;5.57;;;;;;;;;;4999572;28;20130;-73
2022/06/06 04:08:08;;;;;;;17.15;5.00;;;;;;;;;;5014678;28;20025;-73
2022/06/06 04:10:51;;;;;;;16.20;4.47;;;;;;;;;;5013873;28;20041;-73
2022/06/06 04:13:23;;;;;;;15.43;4.43;;;;;;;;;;5000372;28;20457;-73
2022/06/06 04:15:58;;;;;;;21.92;5.60;;;;;;;;;;5016466;28;20037;-72
2022/06/06 04:18:47;;;;;;;17.60;4.67;;;;;;;;;;5007909;28;20806;-72
2022/06/06 04:21:22;;;;;;;21.20;5.18;;;;;;;;;;5017086;28;20499;-72
2022/06/06 04:24:07;;;;;;;25.80;5.28;;;;;;;;;;4999208;28;20057;-72
2022/06/06 04:27:03;;;;;;;20.05;5.25;;;;;;;;;;5008924;28;20026;-72
2022/06/06 04:29:31;;;;;;;21.70;5.82;;;;;;;;;;4985932;28;20037;-73
2022/06/06 04:32:00;;;;;;;23.38;5.85;;;;;;;;;;4995623;28;20035;-73
2022/06/06 04:35:01;;;;;;;24.45;6.18;;;;;;;;;;5009394;28;20033;-73
2022/06/06 04:37:53;;;;;;;18.83;5.55;;;;;;;;;;4919047;29;20044;-75
2022/06/06 04:40:22;;;;;;;18.85;5.43;;;;;;;;;;4906414;29;20051;-73
2022/06/06 04:43:11;;;;;;;21.23;5.50;;;;;;;;;;4933346;28;20521;-72
2022/06/06 04:45:50;;;;;;;19.67;5.22;;;;;;;;;;4909926;29;20145;-73
2022/06/06 04:48:18;;;;;;;21.05;6.20;;;;;;;;;;4910203;29;20444;-72
2022/06/06 04:50:45;;;;;;;20.45;6.00;;;;;;;;;;4921071;29;20072;-73
2022/06/06 04:53:15;;;;;;;20.48;4.82;;;;;;;;;;4922905;29;20079;-72
2022/06/06 04:55:41;;;;;;;20.10;5.72;;;;;;;;;;4918631;29;20534;-73
2022/06/06 04:58:08;;;;;;;17.55;4.68;;;;;;;;;;4916459;29;20064;-73
2022/06/06 05:00:36;;;;;;;20.33;5.43;;;;;;;;;;4905092;29;20226;-73
2022/06/06 05:03:03;;;;;;;25.52;5.90;;;;;;;;;;4909735;29;20035;-73
2022/06/06 05:05:36;;;;;;;23.67;6.00;;;;;;;;;;4918852;29;20117;-72
2022/06/06 05:08:13;;;;;;;20.70;5.57;;;;;;;;;;4923625;29;20032;-73
2022/06/06 05:10:42;;;;;;;19.02;5.55;;;;;;;;;;4906087;29;20031;-75
2022/06/06 05:13:30;;;;;;;19.90;5.40;;;;;;;;;;4953940;28;20050;-72
2022/06/06 05:15:56;;;;;;;19.40;5.60;;;;;;;;;;5013634;28;20349;-73
2022/06/06 05:18:22;;;;;;;;;;;;;;;;;;5018177;28;20048;-72
2022/06/06 05:21:01;;;;;;;15.30;4.93;;;;;;;;;;5013484;28;19917;-73
2022/06/06 05:23:33;;;;;;;19.85;6.35;;;;;;;;;;5011408;28;20053;-73
2022/06/06 05:26:11;;;;;;;18.20;5.13;;;;;;;;;;5015283;28;20033;-73
2022/06/06 05:28:50;;;;;;;19.63;5.03;;;;;;;;;;5013802;28;20590;-72
2022/06/06 05:31:27;;;;;;;18.20;4.30;;;;;;;;;;5012084;28;20202;-74
2022/06/06 05:34:01;;;;;;;17.95;4.05;;;;;;;;;;5009498;28;20037;-75
2022/06/06 05:36:36;;;;;;;14.02;3.53;;;;;;;;;;4999704;28;20056;-73
2022/06/06 05:39:21;;;;;;;16.70;3.73;;;;;;;;;;4988849;28;20458;-73
2022/06/06 05:41:56;;;;;;;14.02;3.25;;;;;;;;;;5004402;28;20287;-73
2022/06/06 05:44:41;;;;;;;12.98;3.70;;;;;;;;;;4999201;28;20060;-73
2022/06/06 05:47:13;;;;;;;14.68;3.60;;;;;;;;;;4986555;28;20385;-73
2022/06/06 05:49:47;;;;;;;14.98;3.78;;;;;;;;;;4996542;28;20116;-73
2022/06/06 05:52:13;;;;;;;15.82;4.20;;;;;;;;;;4994362;28;20049;-73
2022/06/06 05:54:49;;;;;;;16.85;4.13;;;;;;;;;;4985726;28;20045;-73
2022/06/06 05:57:30;;;;;;;31.05;5.03;;;;;;;;;;5000166;28;20022;-72
2022/06/06 06:00:16;;;;;;;17.05;4.50;;;;;;;;;;5006757;28;20073;-73
2022/06/06 06:03:07;;;;;;;13.60;3.97;;;;;;;;;;5003379;28;20041;-73
2022/06/06 06:05:42;;;;;;;15.68;3.97;;;;;;;;;;5004932;28;20349;-73
2022/06/06 06:08:27;;;;;;;16.98;4.10;;;;;;;;;;5005533;28;20546;-75
2022/06/06 06:11:07;;;;;;;15.52;3.50;;;;;;;;;;4987456;28;20029;-73
2022/06/06 06:13:40;;;;;;;16.83;3.60;;;;;;;;;;5002235;28;20076;-73
2022/06/06 06:16:09;;;;;;;17.23;3.75;;;;;;;;;;5007473;28;20092;-74
2022/06/06 06:18:48;;;;;;;23.58;4.03;;;;;;;;;;5005510;28;20147;-73
2022/06/06 06:21:17;;;;;;;19.08;4.53;;;;;;;;;;5006585;28;20025;-73
2022/06/06 06:23:49;;;;;;;20.27;4.07;;;;;;;;;;5010098;28;20102;-73
2022/06/06 06:26:17;;;;;;;17.88;3.60;;;;;;;;;;5014861;28;20570;-74
2022/06/06 06:28:46;;;;;;;17.75;3.92;;;;;;;;;;5018772;28;20876;-73
2022/06/06 06:31:33;;;;;;;15.30;3.33;;;;;;;;;;5022608;28;20026;-75
2022/06/06 06:34:08;;;;;;;11.48;3.33;;;;;;;;;;5002948;28;20048;-74
2022/06/06 06:36:46;;;;;;;11.57;3.13;;;;;;;;;;5010128;28;20476;-74
2022/06/06 06:39:32;;;;;;;12.98;3.00;;;;;;;;;;5009006;28;20371;-74
2022/06/06 06:42:17;;;;;;;13.18;2.88;;;;;;;;;;5018947;28;20037;-74
2022/06/06 06:45:10;;;;;;;8.07;2.20;;;;;;;;;;5016404;28;20037;-72
2022/06/06 06:47:37;;;;;;;10.00;2.55;;;;;;;;;;4950580;28;20576;-72
2022/06/06 06:50:23;;;;;;;10.95;2.60;;;;;;;;;;4937324;28;20100;-72
2022/06/06 06:53:08;;;;;;;7.33;2.00;;;;;;;;;;4951628;28;20081;-72
2022/06/06 06:55:37;;;;;;;10.80;2.50;;;;;;;;;;4951393;28;20552;-72
2022/06/06 06:58:03;;;;;;;7.93;2.20;;;;;;;;;;4952282;28;20331;-72
2022/06/06 07:00:36;;;;;;;9.95;2.80;;;;;;;;;;4957906;28;20517;-72
2022/06/06 07:08:40;;;;;;;8.30;1.92;;;;;;;;;;4952333;28;20045;-72
2022/06/06 07:11:09;;;;;;;9.85;2.30;;;;;;;;;;4948195;28;20316;-72
2022/06/06 07:13:35;;;;;;;10.25;2.22;;;;;;;;;;4943693;28;20165;-72
2022/06/06 07:16:07;;;;;;;8.82;2.55;;;;;;;;;;4938143;28;20110;-72
2022/06/06 07:18:33;;;;;;;11.20;2.40;;;;;;;;;;4946679;28;20058;-72
2022/06/06 07:21:00;;;;;;;10.38;2.60;;;;;;;;;;4954171;28;20106;-72
2022/06/06 07:23:30;;;;;;;6.80;2.10;;;;;;;;;;4956735;28;20070;-71
2022/06/06 07:25:56;;;;;;;5.95;1.90;;;;;;;;;;5011400;28;20057;-74
2022/06/06 07:28:23;;;;;;;8.95;2.25;;;;;;;;;;5012083;28;20033;-73
2022/06/06 07:30:56;;;;;;;9.63;2.30;;;;;;;;;;5009310;28;20083;-73
2022/06/06 07:33:42;;;;;;;8.63;2.08;;;;;;;;;;5013491;28;20041;-73
2022/06/06 07:36:17;;;;;;;6.40;1.83;;;;;;;;;;5006302;28;20034;-73
2022/06/06 07:38:46;;;;;;;9.45;2.00;;;;;;;;;;4997113;28;20468;-71
2022/06/06 07:41:15;;;;;;;7.07;1.77;;;;;;;;;;4989331;28;20527;-72
2022/06/06 07:43:51;;;;;;;7.15;1.85;;;;;;;;;;5001573;28;20037;-74
2022/06/06 07:46:30;;;;;;;10.07;2.30;;;;;;;;;;5009739;28;20034;-71
2022/06/06 07:48:59;;;;;;;6.78;2.20;;;;;;;;;;5006554;28;20543;-72
2022/06/06 07:51:28;;;;;;;6.65;2.00;;;;;;;;;;5003524;28;20037;-72
2022/06/06 07:54:04;;;;;;;7.53;2.13;;;;;;;;;;5013439;28;20036;-71
2022/06/06 07:56:49;;;;;;;7.35;2.10;;;;;;;;;;5003168;28;20057;-72
2022/06/06 07:59:27;;;;;;;7.50;1.77;;;;;;;;;;5000928;28;20041;-71
2022/06/06 08:02:11;;;;;;;7.28;1.88;;;;;;;;;;5010553;28;20046;-73
2022/06/06 08:04:43;;;;;;;8.75;1.90;;;;;;;;;;4991461;28;20091;-71
2022/06/06 08:07:29;;;;;;;8.38;1.90;;;;;;;;;;4990687;28;20407;-72
2022/06/06 08:10:16;;;;;;;10.30;1.70;;;;;;;;;;5005176;28;20034;-72
2022/06/06 08:12:42;;;;;;;11.63;2.10;;;;;;;;;;5004063;28;20286;-71
2022/06/06 08:15:17;;;;;;;8.20;1.90;;;;;;;;;;5005761;28;20103;-71
2022/06/06 08:18:03;;;;;;;8.93;2.17;;;;;;;;;;4982581;28;20449;-72
2022/06/06 08:20:48;;;;;;;6.25;1.98;;;;;;;;;;5005368;28;20286;-71
2022/06/06 08:23:15;;;;;;;9.77;2.10;;;;;;;;;;4988495;28;20121;-71
2022/06/06 08:25:44;;;;;;;11.23;2.08;;;;;;;;;;4999936;28;20033;-72
2022/06/06 08:28:12;;;;;;;7.68;2.10;;;;;;;;;;5002503;28;20554;-72
2022/06/06 08:30:42;;;;;;;7.85;2.13;;;;;;;;;;4986952;28;20129;-72
2022/06/06 08:33:09;;;;;;;9.75;2.20;;;;;;;;;;5005766;28;20471;-71
2022/06/06 08:35:53;;;;;;;7.45;2.28;;;;;;;;;;4991436;28;20037;-71
2022/06/06 08:38:44;;;;;;;6.68;1.90;;;;;;;;;;4988532;28;20175;-70
2022/06/06 08:41:19;;;;;;;12.80;2.15;;;;;;;;;;4940891;28;20523;-71
2022/06/06 08:44:06;;;;;;;7.00;2.30;;;;;;;;;;4944775;28;20108;-71
2022/06/06 08:46:43;;;;;;;7.63;1.98;;;;;;;;;;4927321;28;20506;-71
2022/06/06 08:50:44;;;;;;;7.82;1.88;;;;;;;;;;4946762;28;20061;-73
2022/06/06 08:52:10;;;;;;;7.72;1.65;;;;;;;;;;4948780;28;20162;-72
2022/06/06 08:54:36;;;;;;;8.80;1.90;;;;;;;;;;4945326;28;20035;-72
2022/06/06 08:57:11;;;;;;;9.48;1.73;;;;;;;;;;4945651;28;20535;-72
2022/06/06 08:59:56;;;;;;;6.27;1.90;;;;;;;;;;4941854;28;20530;-72
2022/06/06 09:02:40;;;;;;;9.18;2.17;;;;;;;;;;4942447;28;20978;-72
2022/06/06 09:05:12;;;;;;;7.30;1.92;;;;;;;;;;4927913;28;20409;-72
2022/06/06 09:07:58;;;;;;;10.65;2.20;;;;;;;;;;4940214;28;20074;-72
2022/06/06 09:10:38;;;;;;;9.40;2.03;;;;;;;;;;4925746;28;20421;-72
2022/06/06 09:13:07;;;;;;;7.07;2.03;;;;;;;;;;4942306;28;20038;-72
2022/06/06 09:15:48;;;;;;;7.22;1.90;;;;;;;;;;4943673;28;20038;-72
2022/06/06 09:18:26;;;;;;;7.85;1.98;;;;;;;;;;4971377;28;20048;-72
2022/06/06 09:20:59;;;;;;;7.68;1.70;;;;;;;;;;5008432;28;20037;-72
2022/06/06 09:23:40;;;;;;;5.97;1.65;;;;;;;;;;4989497;28;20033;-72
2022/06/06 09:26:17;;;;;;;6.63;2.10;;;;;;;;;;4997382;28;20021;-72
2022/06/06 09:28:49;;;;;;;7.22;1.70;;;;;;;;;;4983410;28;20033;-72
2022/06/06 09:31:28;;;;;;;6.15;1.65;;;;;;;;;;5006347;28;20301;-72
2022/06/06 09:33:54;;;;;;;9.13;1.83;;;;;;;;;;5001034;28;20041;-73
2022/06/06 09:36:26;;;;;;;7.20;1.70;;;;;;;;;;5003220;28;20030;-70
2022/06/06 09:39:01;;;;;;;7.25;1.70;;;;;;;;;;4987878;28;20090;-73
2022/06/06 09:41:34;;;;;;;6.10;1.67;;;;;;;;;;5001152;28;20841;-69
2022/06/06 09:44:09;;;;;;;8.52;1.90;;;;;;;;;;5003434;28;20137;-72
2022/06/06 09:46:35;;;;;;;7.70;1.70;;;;;;;;;;5000803;28;20110;-72
2022/06/06 09:49:20;;;;;;;9.18;1.90;;;;;;;;;;4987959;28;20140;-72
2022/06/06 09:51:55;;;;;;;6.70;1.73;;;;;;;;;;4995749;28;20692;-72
2022/06/06 10:00:32;;;;;;;11.23;2.28;;;;;;;;;;4975056;28;20642;-71
2022/06/06 10:03:16;;;;;;;5.15;1.58;;;;;;;;;;4983103;28;20560;-72
2022/06/06 10:06:02;;;;;;;6.85;1.63;;;;;;;;;;4980545;28;20049;-71
2022/06/06 10:08:48;;;;;;;6.00;1.42;;;;;;;;;;4980974;28;20113;-71
2022/06/06 10:11:49;;;;;;;7.90;2.13;;;;;;;;;;4981613;28;20467;-71
2022/06/06 10:14:34;;;;;;;8.35;2.15;;;;;;;;;;4915617;29;20093;-71
2022/06/06 10:17:20;;;;;;;6.38;1.77;;;;;;;;;;4910356;29;20058;-72
2022/06/06 10:20:04;;;;;;;8.60;1.85;;;;;;;;;;4899656;29;20045;-72
2022/06/06 10:22:50;;;;;;;9.02;2.00;;;;;;;;;;4909053;29;20052;-71
2022/06/06 10:25:35;;;;;;;7.22;1.90;;;;;;;;;;4918362;29;20078;-71
2022/06/06 10:28:28;;;;;;;7.40;1.52;;;;;;;;;;4894287;29;20557;-71
2022/06/06 10:31:03;;;;;;;7.57;1.63;;;;;;;;;;4882587;29;20036;-72
2022/06/06 10:33:48;;;;;;;6.95;1.63;;;;;;;;;;4879509;29;20044;-72
2022/06/06 10:36:34;;;;;;;7.75;1.70;;;;;;;;;;4884351;29;20151;-72
2022/06/06 10:39:20;;;;;;;8.85;2.08;;;;;;;;;;4886849;29;20112;-72
2022/06/06 10:42:00;;;;;;;8.70;1.67;;;;;;;;;;4879702;29;20345;-71
2022/06/06 10:44:46;;;;;;;7.82;1.80;;;;;;;;;;4887645;29;20349;-71
2022/06/06 10:47:30;;;;;;;7.82;1.80;;;;;;;;;;4886455;28;20452;-71
2022/06/06 10:50:12;;;;;;;13.88;1.98;;;;;;;;;;4931898;28;20567;-74
2022/06/06 10:52:57;;;;;;;8.82;2.10;;;;;;;;;;4952029;28;20580;-72
2022/06/06 10:55:42;;;;;;;11.63;2.50;;;;;;;;;;4959007;28;20038;-72
2022/06/06 10:58:23;;;;;;;10.73;1.95;;;;;;;;;;4951452;28;20035;-73
2022/06/06 11:01:08;;;;;;;9.07;2.13;;;;;;;;;;4949774;28;20068;-72
2022/06/06 11:03:52;;;;;;;7.65;1.92;;;;;;;;;;4935155;28;20038;-72
2022/06/06 11:06:36;;;;;;;7.43;2.00;;;;;;;;;;4954115;28;20097;-72
2022/06/06 11:09:12;;;;;;;7.22;1.45;;;;;;;;;;4990889;28;20421;-72
2022/06/06 11:11:38;;;;;;;7.18;1.60;;;;;;;;;;4988610;28;20392;-73
2022/06/06 11:14:07;;;;;;;7.18;1.80;;;;;;;;;;4989046;28;20038;-74
2022/06/06 11:16:49;;;;;;;8.02;1.60;;;;;;;;;;4967249;28;20045;-73
2022/06/06 11:19:34;;;;;;;7.05;1.70;;;;;;;;;;4971808;28;20050;-71
2022/06/06 11:22:21;;;;;;;7.57;1.83;;;;;;;;;;4993731;28;20456;-73
2022/06/06 11:24:56;;;;;;;4.47;1.50;;;;;;;;;;4954998;28;20050;-72
2022/06/06 11:27:45;;;;;;;5.45;1.40;;;;;;;;;;4985825;28;20112;-72
2022/06/06 11:30:19;;;;;;;7.72;1.70;;;;;;;;;;4976078;28;20499;-71
2022/06/06 11:33:01;;;;;;;6.85;1.70;;;;;;;;;;4980816;28;20240;-74
2022/06/06 11:35:54;;;;;;;8.57;2.00;;;;;;;;;;4987777;28;20034;-74
2022/06/06 11:38:23;;;;;;;8.20;1.70;;;;;;;;;;4983353;28;20048;-74
2022/06/06 11:41:10;;;;;;;5.32;1.67;;;;;;;;;;4981254;28;20578;-72
2022/06/06 11:43:56;;;;;;;6.40;1.50;;;;;;;;;;4983631;28;20026;-72
2022/06/06 11:46:41;;;;;;;7.40;1.83;;;;;;;;;;4985161;28;20030;-71
2022/06/06 11:49:13;;;;;;;7.23;1.73;;;;;;;;;;4988421;28;20034;-72
2022/06/06 11:51:52;;;;;;;8.88;2.00;;;;;;;;;;4983700;28;20391;-75
2022/06/06 11:54:18;;;;;;;8.65;1.85;;;;;;;;;;4985227;28;20119;-73
2022/06/06 11:57:03;;;;;;;7.15;1.55;;;;;;;;;;4981044;28;20136;-73
2022/06/06 11:59:48;;;;;;;8.90;1.90;;;;;;;;;;4991578;28;20041;-75
2022/06/06 12:02:47;;;;;;;7.63;1.52;;;;;;;;;;4987989;28;20132;-72
2022/06/06 12:05:32;;;;;;;6.95;1.45;;;;;;;;;;4999311;28;20042;-72
2022/06/06 12:08:19;;;;;;;7.28;1.65;;;;;;;;;;4987836;28;20096;-73
2022/06/06 12:11:04;;;;;;;9.20;1.85;;;;;;;;;;4986703;28;20069;-73
2022/06/06 12:13:49;;;;;;;5.97;1.40;;;;;;;;;;4985386;28;20025;-72
2022/06/06 12:16:22;;;;;;;11.43;1.83;;;;;;;;;;4992606;28;20562;-73
2022/06/06 12:19:09;;;;;;;6.93;1.70;;;;;;;;;;4970753;28;20044;-73
2022/06/06 12:21:50;;;;;;;6.75;1.92;;;;;;;;;;4987811;28;20480;-73
2022/06/06 12:24:48;;;;;;;5.68;1.50;;;;;;;;;;4986931;28;20037;-73
2022/06/06 12:27:20;;;;;;;4.82;1.30;;;;;;;;;;4969358;28;20042;-73
2022/06/06 12:30:02;;;;;;;6.00;1.55;;;;;;;;;;4994570;28;20679;-73
2022/06/06 12:32:42;;;;;;;7.28;1.58;;;;;;;;;;4987687;28;20030;-73
2022/06/06 12:35:35;;;;;;;6.20;1.60;;;;;;;;;;4989000;28;20310;-73
2022/06/06 12:38:21;;;;;;;10.30;1.83;;;;;;;;;;4987316;28;20149;-74
2022/06/06 12:41:03;;;;;;;8.05;1.40;;;;;;;;;;4982837;28;20693;-73
2022/06/06 12:43:32;;;;;;;7.18;1.70;;;;;;;;;;4993392;28;20033;-73
2022/06/06 12:46:05;;;;;;;7.45;1.60;;;;;;;;;;4973946;28;20460;-74
2022/06/06 12:48:36;;;;;;;7.28;1.60;;;;;;;;;;4993323;28;20041;-73
2022/06/06 12:51:08;;;;;;;4.72;1.20;;;;;;;;;;4993850;28;20045;-73
2022/06/06 12:53:56;;;;;;;8.95;1.60;;;;;;;;;;4974984;28;20107;-75
2022/06/06 12:56:43;;;;;;;5.85;1.35;;;;;;;;;;4967421;28;20033;-75
2022/06/06 12:59:17;;;;;;;5.80;1.60;;;;;;;;;;4999966;28;20049;-75
2022/06/06 13:01:46;;;;;;;5.90;1.42;;;;;;;;;;5007878;28;20307;-75
2022/06/06 13:04:13;;;;;;;5.50;1.60;;;;;;;;;;5008909;28;20085;-75
2022/06/06 13:07:00;;;;;;;7.68;1.63;;;;;;;;;;5001624;28;20097;-75
2022/06/06 13:09:45;;;;;;;5.43;1.60;;;;;;;;;;5000782;28;20060;-75
2022/06/06 13:12:21;;;;;;;5.30;1.50;;;;;;;;;;4990514;28;20029;-76
2022/06/06 13:14:51;;;;;;;5.88;1.70;;;;;;;;;;4996884;28;20586;-76
2022/06/06 13:17:36;;;;;;;5.95;1.20;;;;;;;;;;4986916;28;20431;-75
2022/06/06 13:20:05;;;;;;;5.32;1.30;;;;;;;;;;4990228;28;20040;-75
2022/06/06 13:22:41;;;;;;;5.43;1.50;;;;;;;;;;4998703;28;20531;-74
2022/06/06 13:25:20;;;;;;;6.03;1.38;;;;;;;;;;5005937;28;20025;-75
2022/06/06 13:27:59;;;;;;;5.22;1.30;;;;;;;;;;4990385;28;20033;-72
2022/06/06 13:30:39;;;;;;;4.50;1.27;;;;;;;;;;4988700;28;20120;-75
2022/06/06 13:33:15;;;;;;;6.47;1.50;;;;;;;;;;4992229;28;20833;-73
2022/06/06 13:35:51;;;;;;;8.35;1.50;;;;;;;;;;5002892;28;20473;-72
2022/06/06 13:38:30;;;;;;;6.65;1.45;;;;;;;;;;5008637;28;20032;-69
2022/06/06 13:41:10;;;;;;;9.15;1.80;;;;;;;;;;5006449;28;20029;-76
2022/06/06 13:43:56;;;;;;;7.13;1.67;;;;;;;;;;4989880;28;20644;-75
2022/06/06 13:46:29;;;;;;;10.43;1.83;;;;;;;;;;4991396;28;20029;-73
2022/06/06 13:49:05;;;;;;;9.80;1.60;;;;;;;;;;5007461;28;20434;-74
2022/06/06 13:51:39;;;;;;;7.07;1.70;;;;;;;;;;4985756;28;20304;-73
2022/06/06 13:54:10;;;;;;;5.03;1.40;;;;;;;;;;4999220;28;20374;-74
2022/06/06 13:56:59;;;;;;;5.57;1.60;;;;;;;;;;4986414;28;20107;-76
2022/06/06 13:59:45;;;;;;;7.20;1.75;;;;;;;;;;5006137;28;20053;-76
2022/06/06 14:02:30;;;;;;;7.75;1.80;;;;;;;;;;5000394;28;20413;-77
2022/06/06 14:05:14;;;;;;;8.45;2.15;;;;;;;;;;5001740;28;20491;-77
2022/06/06 14:08:01;;;;;;;8.68;1.75;;;;;;;;;;4985652;28;20164;-76
2022/06/06 14:10:48;;;;;;;7.05;1.70;;;;;;;;;;4997367;28;20124;-76
2022/06/06 14:13:33;;;;;;;8.07;1.90;;;;;;;;;;4989307;28;20025;-78
2022/06/06 14:16:01;;;;;;;9.07;2.00;;;;;;;;;;4986461;28;20030;-74
2022/06/06 14:18:36;;;;;;;10.80;1.85;;;;;;;;;;4983063;28;20341;-73
2022/06/06 14:21:06;;;;;;;8.50;1.88;;;;;;;;;;5006393;28;20791;-74
2022/06/06 14:23:39;;;;;;;7.25;1.70;;;;;;;;;;4986348;28;20034;-75
2022/06/06 14:26:12;;;;;;;7.07;1.40;;;;;;;;;;5004463;28;20554;-75
2022/06/06 14:28:41;;;;;;;6.38;1.63;;;;;;;;;;4977386;28;20038;-75
2022/06/06 14:31:25;;;;;;;9.38;1.63;;;;;;;;;;5006297;28;20025;-74
2022/06/06 14:33:57;;;;;;;5.05;1.40;;;;;;;;;;4991094;28;20052;-77
2022/06/06 14:36:30;;;;;;;8.48;1.83;;;;;;;;;;5009211;28;20025;-74
2022/06/06 14:39:02;;;;;;;8.43;1.60;;;;;;;;;;5007835;28;20476;-83
2022/06/06 14:41:39;;;;;;;6.30;1.70;;;;;;;;;;5006351;28;20148;-82
2022/06/06 14:44:06;;;;;;;9.13;1.73;;;;;;;;;;5011200;28;20583;-81
2022/06/06 14:46:52;;;;;;;5.00;1.70;;;;;;;;;;4992110;28;20041;-73
2022/06/06 14:49:27;;;;;;;7.22;1.67;;;;;;;;;;5009271;28;20022;-73
2022/06/06 14:51:53;;;;;;;;;;;;;;;;;;5007983;28;20038;-71
2022/06/06 14:54:20;;;;;;;4.90;1.42;;;;;;;;;;4986924;28;19994;-71
2022/06/06 14:56:54;;;;;;;7.43;1.50;;;;;;;;;;4984524;28;22026;-71
2022/06/06 14:59:20;;;;;;;;;;;;;;;;;;4990452;28;20443;-72
2022/06/06 15:01:47;;;;;;;7.13;1.60;;;;;;;;;;4996906;28;20982;-71
2022/06/06 15:04:23;;;;;;;4.80;1.45;;;;;;;;;;4991931;28;20380;-71
2022/06/06 15:06:55;;;;;;;9.32;1.40;;;;;;;;;;4983420;28;20030;-71
2022/06/06 15:09:40;;;;;;;8.45;1.52;;;;;;;;;;5001239;28;20039;-71
2022/06/06 15:12:09;;;;;;;8.07;1.50;;;;;;;;;;5000413;28;20037;-72
2022/06/06 15:14:37;;;;;;;6.93;1.80;;;;;;;;;;5007211;28;20431;-72
2022/06/06 15:17:05;;;;;;;8.27;1.67;;;;;;;;;;5004326;28;20144;-73
2022/06/06 15:19:40;;;;;;;7.00;1.52;;;;;;;;;;4998833;28;20037;-74
2022/06/06 15:22:09;;;;;;;4.65;1.30;;;;;;;;;;5015016;28;20057;-72
2022/06/06 15:24:39;;;;;;;6.60;1.40;;;;;;;;;;4999609;28;20044;-71
2022/06/06 15:27:39;;;;;;;7.28;1.50;;;;;;;;;;5001561;28;20399;-73
2022/06/06 15:30:10;;;;;;;5.70;1.30;;;;;;;;;;5004824;28;20155;-71
2022/06/06 15:32:43;;;;;;;6.25;1.90;;;;;;;;;;5013085;28;20037;-73
2022/06/06 15:35:19;;;;;;;7.13;1.80;;;;;;;;;;4990038;28;20103;-73
2022/06/06 15:37:50;;;;;;;8.20;1.73;;;;;;;;;;4990241;28;20125;-72
2022/06/06 15:40:31;;;;;;;7.20;1.77;;;;;;;;;;5006863;28;20124;-73
2022/06/06 15:43:00;;;;;;;5.65;1.50;;;;;;;;;;5003554;28;20036;-72
2022/06/06 15:45:45;;;;;;;6.70;1.90;;;;;;;;;;5004940;28;20045;-71
2022/06/06 15:48:30;;;;;;;7.18;1.65;;;;;;;;;;5006626;28;20384;-72
2022/06/06 15:50:56;;;;;;;;;;;;;;;;;;5003845;28;20514;-71